Time;durP1;ratioP1;P1;durP2;ratioP2;P2;SDS_P1;SDS_P2;PMS_P1;PMS_P2;Temp;Humidity;BMP_temperature;BMP_pressure;BME280_temperature;BME280_humidity;BME280_pressure;Samples;Min_cycle;Max_cycle;Signal;HPM_P1;HPM_P2
2022/03/25 00:01:32;;;;;;;10.40;8.00;;;;;;;3.30;100.00;97136.94;5048311;27;104953;-55
2022/03/25 00:03:59;;;;;;;9.27;8.00;;;;;;;3.29;100.00;97141.34;5048865;27;101902;-54
2022/03/25 00:06:27;;;;;;;10.53;8.17;;;;;;;3.18;100.00;97139.22;5048919;27;105543;-54
2022/03/25 00:08:55;;;;;;;10.00;7.87;;;;;;;2.97;100.00;97133.13;5048482;27;105356;-54
2022/03/25 00:11:23;;;;;;;10.90;7.33;;;;;;;2.99;100.00;97125.88;5050378;27;101860;-53
2022/03/25 00:13:51;;;;;;;8.40;7.43;;;;;;;3.11;100.00;97129.66;5048911;27;105490;-52
2022/03/25 00:16:18;;;;;;;10.73;7.70;;;;;;;3.35;100.00;97130.13;5050687;27;105764;-54
2022/03/25 00:18:47;;;;;;;10.00;8.33;;;;;;;3.37;100.00;97135.16;5049974;27;103085;-56
2022/03/25 00:21:14;;;;;;;10.40;8.33;;;;;;;3.41;100.00;97133.81;5048236;27;105128;-54
2022/03/25 00:23:41;;;;;;;10.33;8.07;;;;;;;3.38;100.00;97136.81;5048711;27;101869;-56
2022/03/25 00:26:08;;;;;;;10.93;7.53;;;;;;;3.08;100.00;97133.47;5048608;27;105643;-55
2022/03/25 00:28:36;;;;;;;8.83;7.77;;;;;;;2.99;100.00;97133.75;5047820;27;106360;-55
2022/03/25 00:31:06;;;;;;;11.37;8.17;;;;;;;3.09;100.00;97136.91;5048788;27;101810;-55
2022/03/25 00:33:33;;;;;;;9.77;8.73;;;;;;;3.25;100.00;97136.66;5048655;27;105681;-55
2022/03/25 00:36:02;;;;;;;14.17;9.90;;;;;;;3.44;100.00;97128.97;5050822;27;103034;-56
2022/03/25 00:38:31;;;;;;;11.93;10.17;;;;;;;3.62;100.00;97131.19;5055721;27;101956;-54
2022/03/25 00:40:59;;;;;;;13.00;9.47;;;;;;;3.69;100.00;97132.03;5050573;27;105526;-54
2022/03/25 00:43:28;;;;;;;16.93;10.17;;;;;;;3.77;100.00;97124.03;5035295;27;101862;-55
2022/03/25 00:45:56;;;;;;;12.60;9.53;;;;;;;3.75;100.00;97129.47;5050772;27;104807;-55
2022/03/25 00:48:22;;;;;;;11.43;8.80;;;;;;;3.69;100.00;97126.78;5051521;27;105435;-56
2022/03/25 00:50:50;;;;;;;11.67;7.97;;;;;;;3.57;100.00;97126.50;5052197;27;102118;-55
2022/03/25 00:53:19;;;;;;;12.03;8.73;;;;;;;3.55;100.00;97125.84;5052046;27;104844;-56
2022/03/25 00:55:47;;;;;;;12.63;9.33;;;;;;;3.39;100.00;97123.47;5050888;27;105457;-54
2022/03/25 00:58:16;;;;;;;9.90;8.17;;;;;;;3.11;100.00;97129.66;5051717;27;102000;-56
2022/03/25 01:00:43;;;;;;;12.60;8.63;;;;;;;2.69;100.00;97133.00;5054576;27;105316;-54
2022/03/25 01:03:10;;;;;;;11.53;8.63;;;;;;;2.75;100.00;97128.84;5051888;27;101807;-55
2022/03/25 01:05:36;;;;;;;9.27;8.03;;;;;;;2.74;100.00;97125.38;5051845;27;105122;-56
2022/03/25 01:08:04;;;;;;;10.10;8.17;;;;;;;2.63;100.00;97128.47;5051241;27;104076;-55
2022/03/25 01:10:34;;;;;;;11.37;8.80;;;;;;;2.43;100.00;97123.97;5051424;27;101939;-55
2022/03/25 01:13:03;;;;;;;9.60;8.40;;;;;;;2.25;100.00;97129.59;5051906;27;105122;-56
2022/03/25 01:15:29;;;;;;;10.70;8.30;;;;;;;2.11;100.00;97119.09;5050617;27;105097;-55
2022/03/25 01:17:56;;;;;;;8.80;7.20;;;;;;;2.17;100.00;97116.56;5051522;27;101870;-55
2022/03/25 01:20:24;;;;;;;8.00;7.10;;;;;;;2.17;100.00;97123.59;5051575;27;104949;-56
2022/03/25 01:22:51;;;;;;;9.83;8.13;;;;;;;2.16;100.00;97120.19;5055924;27;102453;-56
2022/03/25 01:25:19;;;;;;;12.47;8.43;;;;;;;2.53;100.00;97120.09;5051172;27;104868;-56
2022/03/25 01:27:49;;;;;;;12.40;8.07;;;;;;;2.77;100.00;97113.69;5050842;27;105053;-55
2022/03/25 01:30:17;;;;;;;11.90;8.17;;;;;;;2.99;100.00;97118.00;5051370;27;101900;-55
2022/03/25 01:32:45;;;;;;;11.20;9.03;;;;;;;3.13;100.00;97115.34;5051404;27;104459;-54
2022/03/25 01:35:13;;;;;;;8.73;7.77;;;;;;;3.19;100.00;97119.03;5050767;27;105438;-56
2022/03/25 01:37:43;;;;;;;9.23;7.70;;;;;;;3.14;100.00;97105.63;5051274;27;102058;-55
2022/03/25 01:40:10;;;;;;;9.97;7.83;;;;;;;3.18;100.00;97114.78;5034413;27;105664;-55
2022/03/25 01:42:41;;;;;;;9.30;7.83;;;;;;;3.03;100.00;97114.84;5053980;27;105262;-56
2022/03/25 01:45:12;;;;;;;9.90;8.17;;;;;;;2.84;100.00;97114.59;5051265;27;104952;-51
2022/03/25 01:47:40;;;;;;;9.97;7.93;;;;;;;2.88;100.00;97115.84;5049398;27;105270;-56
2022/03/25 01:50:19;;;;;;;9.57;8.17;;;;;;;2.73;100.00;97122.97;5051149;27;102014;-56
2022/03/25 01:52:47;;;;;;;8.13;7.27;;;;;;;2.49;100.00;97121.44;5050971;27;104129;-54
2022/03/25 01:55:18;;;;;;;10.50;8.40;;;;;;;2.62;100.00;97120.81;5049978;27;106024;-54
2022/03/25 01:57:46;;;;;;;9.83;7.77;;;;;;;2.55;100.00;97115.47;5052425;27;101697;-55
2022/03/25 02:00:19;;;;;;;12.23;7.93;;;;;;;2.31;100.00;97114.94;5051367;27;101985;-54
2022/03/25 02:02:52;;;;;;;11.17;8.13;;;;;;;2.39;100.00;97113.03;5049035;27;102443;-55
2022/03/25 02:05:21;;;;;;;12.37;8.60;;;;;;;2.31;100.00;97114.94;5054224;27;101864;-56
2022/03/25 02:07:48;;;;;;;10.10;8.30;;;;;;;2.42;100.00;97109.22;5050205;27;103945;-55
2022/03/25 02:10:18;;;;;;;10.70;8.53;;;;;;;2.37;100.00;97104.53;5050752;27;102044;-55
2022/03/25 02:12:46;;;;;;;10.17;8.23;;;;;;;2.15;100.00;97117.75;5050703;27;104857;-55
2022/03/25 02:15:17;;;;;;;11.23;8.60;;;;;;;1.98;100.00;97108.41;5049914;27;105449;-53
2022/03/25 02:17:44;;;;;;;13.37;8.77;;;;;;;1.85;100.00;97113.44;5050604;27;101820;-55
2022/03/25 02:20:12;;;;;;;11.27;8.87;;;;;;;1.96;100.00;97113.00;5050531;27;104859;-55
2022/03/25 02:22:44;;;;;;;11.83;9.00;;;;;;;1.88;100.00;97115.72;5049940;27;105276;-56
2022/03/25 02:25:21;;;;;;;12.13;8.70;;;;;;;1.87;100.00;97109.66;5050409;27;101803;-56
2022/03/25 02:27:48;;;;;;;11.47;8.47;;;;;;;1.90;100.00;97114.56;5053200;27;103819;-53
2022/03/25 02:30:15;;;;;;;11.77;8.53;;;;;;;1.97;100.00;97110.22;5050550;27;102064;-53
2022/03/25 02:32:43;;;;;;;12.37;9.50;;;;;;;2.06;100.00;97114.38;5050408;27;104936;-53
2022/03/25 02:35:10;;;;;;;12.27;9.37;;;;;;;2.10;100.00;97110.41;5049890;27;104895;-55
2022/03/25 02:37:37;;;;;;;11.57;9.13;;;;;;;1.90;100.00;97119.78;5050013;27;101935;-53
2022/03/25 02:40:07;;;;;;;9.60;7.93;;;;;;;2.25;100.00;97105.16;5050269;27;105556;-56
2022/03/25 02:42:34;;;;;;;15.03;8.43;;;;;;;2.62;100.00;97102.44;5049520;27;104044;-54
2022/03/25 02:45:03;;;;;;;10.43;8.13;;;;;;;2.96;100.00;97100.78;5050303;27;101958;-56
2022/03/25 02:47:30;;;;;;;11.50;8.53;;;;;;;3.08;100.00;97103.75;5049947;27;104832;-54
2022/03/25 02:49:57;;;;;;;12.67;8.50;;;;;;;3.23;100.00;97096.63;5052854;27;105369;-54
2022/03/25 02:52:24;;;;;;;9.03;7.87;;;;;;;3.32;100.00;97098.13;5051544;27;102391;-53
2022/03/25 02:54:51;;;;;;;9.93;8.50;;;;;;;3.32;100.00;97098.13;5049135;27;105396;-55
2022/03/25 02:57:19;;;;;;;9.80;8.30;;;;;;;3.23;100.00;97099.25;5049798;27;102330;-54
2022/03/25 02:59:46;;;;;;;9.93;7.50;;;;;;;2.96;100.00;97092.91;5049785;27;105114;-54
2022/03/25 03:02:13;;;;;;;10.97;7.83;;;;;;;2.71;100.00;97098.69;5049239;27;105370;-56
2022/03/25 03:04:41;;;;;;;8.80;7.90;;;;;;;2.10;100.00;97104.34;5049879;27;101914;-56
2022/03/25 03:07:08;;;;;;;8.83;7.70;;;;;;;1.60;100.00;97107.59;5049951;27;105598;-56
2022/03/25 03:09:35;;;;;;;11.03;8.03;;;;;;;1.72;100.00;97106.22;5049167;27;105885;-54
2022/03/25 03:12:02;;;;;;;10.53;7.93;;;;;;;1.85;100.00;97106.41;5053122;27;101828;-55
2022/03/25 03:14:32;;;;;;;9.33;8.20;;;;;;;1.86;100.00;97107.22;5049017;27;105461;-54
2022/03/25 03:16:58;;;;;;;11.53;8.13;;;;;;;1.86;100.00;97112.47;5049695;27;101883;-54
2022/03/25 03:19:25;;;;;;;9.97;8.23;;;;;;;1.93;100.00;97103.72;5051108;27;102869;-54
2022/03/25 03:21:53;;;;;;;12.40;8.67;;;;;;;1.92;100.00;97104.69;5049065;27;104708;-54
2022/03/25 03:24:20;;;;;;;11.27;8.50;;;;;;;1.93;100.00;97105.50;5049406;27;102037;-55
2022/03/25 03:26:47;;;;;;;10.27;8.37;;;;;;;1.99;100.00;97103.00;5049401;27;105179;-55
2022/03/25 03:29:13;;;;;;;12.13;9.03;;;;;;;1.61;100.00;97106.63;5048997;27;105103;-53
2022/03/25 03:31:42;;;;;;;11.17;9.10;;;;;;;1.62;100.00;97102.19;5051081;27;101791;-55
2022/03/25 03:34:08;;;;;;;13.13;8.27;;;;;;;1.63;100.00;97101.19;5052171;27;105560;-55
2022/03/25 03:36:35;;;;;;;12.27;8.83;;;;;;;1.75;100.00;97099.81;5049358;27;101834;-55
2022/03/25 03:39:02;;;;;;;12.67;8.47;;;;;;;1.52;100.00;97099.81;5049210;27;105567;-55
2022/03/25 03:41:30;;;;;;;12.00;8.87;;;;;;;1.11;100.00;97105.56;5048612;27;105153;-54
2022/03/25 03:43:58;;;;;;;11.07;8.80;;;;;;;1.12;100.00;97108.00;5048416;27;101879;-55
2022/03/25 03:46:25;;;;;;;11.07;7.90;;;;;;;1.24;100.00;97105.78;5049148;27;105313;-55
2022/03/25 03:48:53;;;;;;;10.93;7.87;;;;;;;1.26;100.00;97106.44;5048718;27;105371;-55
2022/03/25 03:51:20;;;;;;;11.43;8.20;;;;;;;1.37;100.00;97103.41;5049027;27;101781;-55
2022/03/25 03:53:47;;;;;;;11.03;8.30;;;;;;;1.17;100.00;97103.06;5051707;27;103574;-55
2022/03/25 03:56:14;;;;;;;10.33;8.17;;;;;;;1.25;100.00;97097.75;5048647;27;101958;-56
2022/03/25 03:58:41;;;;;;;11.97;8.90;;;;;;;1.36;100.00;97099.13;5049069;27;106180;-56
2022/03/25 04:01:08;;;;;;;9.30;7.80;;;;;;;1.27;100.00;97105.44;5048187;27;105018;-55
2022/03/25 04:03:35;;;;;;;10.83;8.30;;;;;;;1.09;100.00;97097.06;5050318;27;101724;-55
2022/03/25 04:06:03;;;;;;;15.30;9.10;;;;;;;1.12;100.00;97092.31;5050364;27;102583;-53
2022/03/25 04:08:30;;;;;;;10.83;8.70;;;;;;;0.92;100.00;97095.53;5049875;27;103359;-55
2022/03/25 04:10:58;;;;;;;10.67;9.17;;;;;;;0.94;100.00;97094.38;5047875;27;102329;-55
2022/03/25 04:13:25;;;;;;;10.40;8.60;;;;;;;0.99;100.00;97093.88;5049441;27;102645;-52
2022/03/25 04:15:52;;;;;;;12.30;9.00;;;;;;;0.95;100.00;97097.81;5053381;27;102417;-56
2022/03/25 04:18:19;;;;;;;10.03;8.17;;;;;;;0.99;100.00;97104.34;5048836;27;103725;-55
2022/03/25 04:20:47;;;;;;;10.83;8.40;;;;;;;1.09;100.00;97097.88;5049254;27;102451;-55
2022/03/25 04:23:16;;;;;;;11.80;8.50;;;;;;;1.16;100.00;97100.63;5032001;27;101913;-55
2022/03/25 04:25:43;;;;;;;12.13;8.60;;;;;;;1.01;100.00;97105.81;5048756;27;103986;-56
2022/03/25 04:28:10;;;;;;;13.73;9.17;;;;;;;1.14;100.00;97105.19;5049747;27;101846;-54
2022/03/25 04:30:40;;;;;;;13.97;9.40;;;;;;;1.09;100.00;97099.69;5048748;27;102065;-55
2022/03/25 04:33:08;;;;;;;10.47;7.67;;;;;;;1.16;100.00;97100.63;5048460;27;105641;-56
2022/03/25 04:35:35;;;;;;;13.93;9.07;;;;;;;1.19;100.00;97100.25;5048034;27;105069;-53
2022/03/25 04:38:03;;;;;;;11.07;8.80;;;;;;;1.27;100.00;97100.22;5053615;27;101893;-55
2022/03/25 04:40:33;;;;;;;10.53;8.30;;;;;;;1.27;100.00;97102.81;5047813;27;105640;-55
2022/03/25 04:43:01;;;;;;;11.87;9.23;;;;;;;1.19;100.00;97095.84;5031571;27;102447;-55
2022/03/25 04:45:29;;;;;;;12.47;9.03;;;;;;;1.17;100.00;97094.38;5048556;27;103679;-52
2022/03/25 04:47:57;;;;;;;14.57;10.23;;;;;;;1.15;100.00;97102.41;5049229;27;102476;-55
2022/03/25 04:50:24;;;;;;;15.23;10.37;;;;;;;1.08;100.00;97100.66;5047512;27;101863;-55
2022/03/25 04:52:51;;;;;;;14.47;9.90;;;;;;;0.80;100.00;97097.75;5047476;27;104161;-55
2022/03/25 04:55:19;;;;;;;12.40;9.07;;;;;;;0.68;100.00;97098.31;5047899;27;104635;-55
2022/03/25 04:57:49;;;;;;;13.00;9.50;;;;;;;0.65;100.00;97098.63;5049108;27;102033;-54
2022/03/25 05:00:17;;;;;;;12.53;9.67;;;;;;;0.76;100.00;97106.09;5048868;27;102898;-53
2022/03/25 05:02:44;;;;;;;11.10;8.93;;;;;;;0.84;100.00;97108.69;5048134;27;101780;-55
2022/03/25 05:05:12;;;;;;;12.00;8.80;;;;;;;0.71;100.00;97111.84;5049777;27;102344;-55
2022/03/25 05:07:42;;;;;;;11.13;8.67;;;;;;;0.58;100.00;97110.78;5048650;27;103108;-56
2022/03/25 05:10:12;;;;;;;13.60;9.50;;;;;;;0.46;100.00;97112.97;5048171;27;101940;-56
2022/03/25 05:12:39;;;;;;;11.67;9.10;;;;;;;0.54;100.00;97117.31;5049684;27;102950;-53
2022/03/25 05:15:09;;;;;;;11.80;8.93;;;;;;;0.76;100.00;97121.81;5047349;27;105255;-51
2022/03/25 05:17:44;;;;;;;10.67;8.47;;;;;;;0.88;100.00;97130.91;5047883;27;102276;-56
2022/03/25 05:20:12;;;;;;;12.10;8.63;;;;;;;0.81;100.00;97119.47;5049423;27;102989;-53
2022/03/25 05:22:39;;;;;;;13.57;8.80;;;;;;;0.76;100.00;97127.88;5051745;27;104140;-56
2022/03/25 05:25:08;;;;;;;17.73;9.50;;;;;;;0.93;100.00;97123.38;5052485;27;102408;-56
2022/03/25 05:27:47;;;;;;;13.07;8.87;;;;;;;1.15;100.00;97133.03;5050567;27;105659;-54
2022/03/25 05:30:17;;;;;;;16.73;9.20;;;;;;;1.06;100.00;97134.06;5052896;27;102099;-51
2022/03/25 05:32:44;;;;;;;13.23;9.20;;;;;;;1.20;100.00;97131.50;5052724;27;101642;-54
2022/03/25 05:35:11;;;;;;;12.47;9.10;;;;;;;1.30;100.00;97129.50;5050609;27;105342;-53
2022/03/25 05:37:39;;;;;;;13.93;9.40;;;;;;;1.40;100.00;97131.88;5051260;27;101957;-54
2022/03/25 05:40:09;;;;;;;12.47;9.03;;;;;;;1.44;100.00;97125.28;5051211;27;105515;-55
2022/03/25 05:42:36;;;;;;;13.47;8.73;;;;;;;1.51;100.00;97134.91;5050333;27;105226;-53
2022/03/25 05:45:05;;;;;;;11.07;8.53;;;;;;;1.63;100.00;97135.28;5054468;27;101755;-55
2022/03/25 05:47:34;;;;;;;12.30;8.80;;;;;;;1.66;100.00;97143.63;5050371;27;104966;-55
2022/03/25 05:50:02;;;;;;;14.40;8.90;;;;;;;1.48;100.00;97145.72;5051053;27;102078;-55
2022/03/25 05:52:29;;;;;;;10.20;7.97;;;;;;;1.67;100.00;97144.41;5050809;27;105349;-55
2022/03/25 05:54:56;;;;;;;14.27;8.67;;;;;;;1.64;100.00;97147.41;5049503;27;105978;-54
2022/03/25 05:57:23;;;;;;;11.07;9.03;;;;;;;1.76;100.00;97153.84;5051080;27;101803;-54
2022/03/25 05:59:51;;;;;;;9.03;7.80;;;;;;;1.87;100.00;97156.06;5050867;27;103549;-55
2022/03/25 06:02:18;;;;;;;14.03;9.17;;;;;;;1.97;100.00;97151.38;5049544;27;105796;-54
2022/03/25 06:04:47;;;;;;;13.77;9.23;;;;;;;1.95;100.00;97159.41;5054392;27;101938;-56
2022/03/25 06:07:14;;;;;;;12.63;9.37;;;;;;;2.25;100.00;97157.66;5050130;27;103984;-55
2022/03/25 06:09:41;;;;;;;11.53;8.73;;;;;;;2.43;100.00;97158.94;5050475;27;101832;-54
2022/03/25 06:12:10;;;;;;;14.63;9.57;;;;;;;2.72;100.00;97153.66;5050847;27;105098;-54
2022/03/25 06:14:37;;;;;;;11.67;8.70;;;;;;;2.73;100.00;97152.66;5050022;27;105154;-56
2022/03/25 06:17:05;;;;;;;13.67;9.10;;;;;;;2.71;100.00;97152.03;5050699;27;101814;-55
2022/03/25 06:19:32;;;;;;;13.20;9.57;;;;;;;3.03;100.00;97151.59;5050659;27;105511;-55
2022/03/25 06:22:07;;;;;;;12.90;9.83;;;;;;;3.39;100.00;97152.38;5049668;27;106608;-56
2022/03/25 06:24:33;;;;;;;14.20;9.80;;;;;;;3.52;100.00;97147.28;5050613;27;102011;-55
2022/03/25 06:27:00;;;;;;;14.67;9.47;;;;;;;3.80;100.00;97156.03;5053407;27;106404;-56
2022/03/25 06:29:27;;;;;;;11.87;9.10;;;;;;;3.93;100.00;97150.84;5050006;27;101867;-56
2022/03/25 06:31:54;;;;;;;14.37;9.50;;;;;;;4.06;100.00;97150.97;5050630;27;105188;-54
2022/03/25 06:34:23;;;;;;;12.70;9.47;;;;;;;4.30;100.00;97147.06;5049269;27;105571;-55
2022/03/25 06:36:50;;;;;;;13.83;11.03;;;;;;;4.41;100.00;97152.63;5050297;27;101915;-56
2022/03/25 06:39:18;;;;;;;21.23;15.17;;;;;;;4.64;100.00;97150.53;5049321;27;105505;-55
2022/03/25 06:41:46;;;;;;;22.57;14.80;;;;;;;4.90;100.00;97148.03;5048803;27;105081;-54
2022/03/25 06:44:13;;;;;;;17.50;13.20;;;;;;;4.90;100.00;97147.19;5049029;27;102049;-56
2022/03/25 06:46:40;;;;;;;14.73;11.10;;;;;;;5.08;100.00;97156.19;5048676;27;105181;-55
2022/03/25 06:49:08;;;;;;;11.13;9.43;;;;;;;5.19;100.00;97155.63;5052158;27;105748;-54
2022/03/25 06:51:36;;;;;;;12.80;8.93;;;;;;;5.34;100.00;97152.84;5050084;27;105084;-56
2022/03/25 06:54:03;;;;;;;14.43;9.50;;;;;;;5.43;100.00;97149.00;5049344;27;104214;-55
2022/03/25 06:56:34;;;;;;;11.60;9.63;;;;;;;5.56;100.00;97146.41;5049369;27;102380;-56
2022/03/25 06:59:04;;;;;;;10.93;9.00;;;;;;;5.71;100.00;97152.28;5049852;27;105267;-54
2022/03/25 07:01:32;;;;;;;10.03;8.73;;;;;;;5.88;100.00;97162.28;5048960;27;104960;-56
2022/03/25 07:04:00;;;;;;;10.80;8.30;;;;;;;5.97;100.00;97161.09;5049641;27;101893;-56
2022/03/25 07:06:27;;;;;;;12.17;8.27;;;;;;;6.06;100.00;97156.41;5049836;27;104455;-55
2022/03/25 07:08:56;;;;;;;10.60;8.93;;;;;;;6.17;100.00;97161.09;5050653;27;102811;-56
2022/03/25 07:11:25;;;;;;;13.43;9.07;;;;;;;6.28;100.00;97160.47;5054548;27;101819;-55
2022/03/25 07:13:55;;;;;;;10.83;8.90;;;;;;;6.49;100.00;97158.38;5048970;27;105450;-56
2022/03/25 07:16:22;;;;;;;12.90;9.40;;;;;;;6.80;100.00;97157.72;5050896;27;101811;-55
2022/03/25 07:18:49;;;;;;;16.67;8.90;;;;;;;6.95;100.00;97161.75;5050976;27;102896;-56
2022/03/25 07:21:16;;;;;;;11.40;8.47;;;;;;;7.06;100.00;97158.44;5048933;27;103802;-56
2022/03/25 07:23:44;;;;;;;11.43;9.27;;;;;;;7.27;100.00;97158.16;5049576;27;101825;-55
2022/03/25 07:26:12;;;;;;;13.73;10.00;;;;;;;7.14;100.00;97157.41;5049367;27;105858;-56
2022/03/25 07:28:39;;;;;;;14.60;9.47;;;;;;;7.23;100.00;97159.59;5049455;27;102769;-54
2022/03/25 07:31:07;;;;;;;14.33;9.20;;;;;;;7.39;100.00;97159.09;5049394;27;102038;-56
2022/03/25 07:33:35;;;;;;;16.50;9.33;;;;;;;7.47;100.00;97155.41;5052315;27;105158;-55
2022/03/25 07:36:02;;;;;;;14.37;8.97;;;;;;;7.74;100.00;97164.81;5049351;27;101901;-54
2022/03/25 07:38:29;;;;;;;11.67;8.30;;;;;;;7.74;100.00;97170.91;5049718;27;104879;-56
2022/03/25 07:40:57;;;;;;;12.00;8.83;;;;;;;7.79;100.00;97167.63;5048655;27;105503;-56
2022/03/25 07:43:24;;;;;;;13.67;9.83;;;;;;;7.69;100.00;97164.63;5050389;27;101844;-56
2022/03/25 07:45:51;;;;;;;11.70;9.33;;;;;;;8.02;100.00;97162.56;5049866;27;102913;-56
2022/03/25 07:48:20;;;;;;;11.10;8.50;;;;;;;8.25;100.00;97157.53;5048662;27;105310;-54
2022/03/25 07:50:47;;;;;;;11.83;9.27;;;;;;;8.70;100.00;97153.63;5050526;27;101795;-54
2022/03/25 07:53:14;;;;;;;14.20;8.93;;;;;;;9.05;100.00;97152.03;5050499;27;101710;-55
2022/03/25 07:55:44;;;;;;;11.50;9.20;;;;;;;9.05;100.00;97159.97;5051062;27;101882;-55
2022/03/25 07:58:11;;;;;;;12.07;9.50;;;;;;;9.22;100.00;97161.00;5048779;27;105258;-56
2022/03/25 08:00:39;;;;;;;12.57;9.10;;;;;;;9.57;100.00;97157.47;5049942;27;102819;-56
2022/03/25 08:03:07;;;;;;;10.60;8.00;;;;;;;9.88;100.00;97159.06;5050381;27;101776;-55
2022/03/25 08:05:36;;;;;;;14.20;8.00;;;;;;;9.93;98.07;97161.84;5050226;27;104139;-56
2022/03/25 08:08:03;;;;;;;14.27;7.60;;;;;;;10.08;94.30;97165.72;5048163;27;105229;-56
2022/03/25 08:10:31;;;;;;;10.83;7.53;;;;;;;9.91;91.99;97167.38;5050537;27;102006;-56
2022/03/25 08:12:59;;;;;;;10.73;7.70;;;;;;;10.38;94.58;97165.66;5048931;27;103739;-55
2022/03/25 08:15:27;;;;;;;8.70;7.00;;;;;;;10.32;90.58;97166.56;5051630;27;106078;-55
2022/03/25 08:17:56;;;;;;;9.77;7.10;;;;;;;10.40;86.86;97169.72;5048705;27;104879;-56
2022/03/25 08:20:25;;;;;;;10.23;7.13;;;;;;;10.71;85.88;97171.22;5048023;27;103891;-52
2022/03/25 08:22:54;;;;;;;10.20;7.30;;;;;;;11.05;82.95;97165.88;5048750;27;102351;-55
2022/03/25 08:28:06;;;;;;;12.10;7.30;;;;;;;11.45;81.21;97171.22;5048039;27;105441;-55
2022/03/25 08:30:34;;;;;;;11.80;7.40;;;;;;;11.66;79.72;97170.59;5048861;27;101830;-55
2022/03/25 08:33:03;;;;;;;9.87;7.07;;;;;;;11.77;76.34;97169.75;5048530;27;105552;-54
2022/03/25 08:35:30;;;;;;;8.30;7.00;;;;;;;12.28;76.65;97169.56;5048025;27;105878;-55
2022/03/25 08:37:58;;;;;;;10.70;7.20;;;;;;;12.08;69.40;97163.88;5053571;27;101843;-56
2022/03/25 08:40:28;;;;;;;10.27;6.93;;;;;;;12.17;69.21;97173.13;5047945;27;105416;-56
2022/03/25 08:42:56;;;;;;;11.00;6.73;;;;;;;12.57;67.39;97173.75;5048451;27;101862;-56
2022/03/25 08:45:23;;;;;;;12.13;7.03;;;;;;;12.70;68.24;97178.78;5049933;27;102929;-55
2022/03/25 08:47:51;;;;;;;12.33;7.30;;;;;;;12.83;66.75;97168.56;5048043;27;105373;-56
2022/03/25 08:50:19;;;;;;;10.20;7.77;;;;;;;13.14;73.74;97169.84;5048135;27;101885;-54
2022/03/25 08:52:47;;;;;;;8.63;7.13;;;;;;;13.28;71.63;97171.88;5048491;27;105596;-55
2022/03/25 08:55:18;;;;;;;11.17;7.13;;;;;;;13.56;66.52;97173.53;5047204;27;105470;-56
2022/03/25 08:57:46;;;;;;;10.23;6.87;;;;;;;13.32;59.94;97172.19;5034032;27;101945;-57
2022/03/25 09:00:16;;;;;;;10.30;6.40;;;;;;;13.50;58.31;97179.88;5054412;27;105170;-55
2022/03/25 09:02:46;;;;;;;7.83;6.40;;;;;;;13.75;58.10;97167.66;5051706;27;101906;-56
2022/03/25 09:05:13;;;;;;;8.73;6.43;;;;;;;13.78;53.36;97172.47;5053146;27;102459;-53
2022/03/25 09:07:41;;;;;;;10.40;6.30;;;;;;;14.10;54.86;97168.00;5052589;27;102572;-55
2022/03/25 09:10:10;;;;;;;8.27;6.00;;;;;;;14.36;52.70;97171.72;5053216;27;102061;-55
2022/03/25 09:12:39;;;;;;;6.67;5.97;;;;;;;14.49;51.68;97168.63;5051546;27;104116;-55
2022/03/25 09:15:07;;;;;;;8.47;6.63;;;;;;;14.63;50.08;97164.44;5052616;27;102628;-56
2022/03/25 09:17:34;;;;;;;7.83;6.07;;;;;;;13.94;50.97;97168.06;5051498;27;101782;-54
2022/03/25 09:20:04;;;;;;;9.27;6.00;;;;;;;14.69;52.18;97164.25;5051573;27;105221;-56
2022/03/25 09:22:31;;;;;;;10.20;6.77;;;;;;;14.27;47.94;97165.22;5054314;27;105716;-56
2022/03/25 09:24:58;;;;;;;7.40;6.13;;;;;;;14.78;47.88;97168.03;5051128;27;104722;-55
2022/03/25 09:27:25;;;;;;;8.37;6.33;;;;;;;15.06;46.25;97169.56;5050998;27;105217;-56
2022/03/25 09:29:54;;;;;;;7.17;5.93;;;;;;;15.38;47.02;97167.63;5051508;27;101892;-54
2022/03/25 09:32:21;;;;;;;8.47;6.33;;;;;;;14.98;45.21;97164.69;5052713;27;102368;-56
2022/03/25 09:37:35;;;;;;;8.13;6.53;;;;;;;15.72;41.25;97155.41;5051103;27;101742;-58
2022/03/25 09:40:03;;;;;;;7.77;6.93;;;;;;;15.59;39.17;97163.94;5051420;27;105758;-57
2022/03/25 09:42:32;;;;;;;7.23;6.53;;;;;;;15.79;40.27;97155.94;5050614;27;105009;-58
2022/03/25 09:45:02;;;;;;;7.83;7.03;;;;;;;15.97;39.68;97155.47;5054348;27;102077;-55
2022/03/25 09:47:30;;;;;;;9.33;7.10;;;;;;;16.56;40.97;97159.31;5050472;27;105515;-54
2022/03/25 09:49:57;;;;;;;9.00;7.70;;;;;;;16.16;37.63;97156.56;5051201;27;101875;-54
2022/03/25 09:52:26;;;;;;;9.87;7.50;;;;;;;16.03;38.50;97154.41;5050844;27;105398;-55
2022/03/25 09:54:53;;;;;;;10.33;6.70;;;;;;;16.39;38.82;97153.38;5050073;27;105427;-58
2022/03/25 09:57:20;;;;;;;8.40;6.87;;;;;;;16.02;39.38;97153.59;5052513;27;101698;-58
2022/03/25 09:59:47;;;;;;;9.10;7.30;;;;;;;16.26;38.81;97153.91;5052329;27;103317;-56
2022/03/25 10:02:15;;;;;;;8.67;7.70;;;;;;;16.44;38.17;97148.84;5051831;27;103008;-58
2022/03/25 10:04:43;;;;;;;8.37;7.23;;;;;;;16.66;38.69;97146.69;5054419;27;101917;-57
2022/03/25 10:07:21;;;;;;;10.90;8.23;;;;;;;16.83;37.94;97143.69;5051200;27;103081;-59
2022/03/25 10:09:49;;;;;;;9.97;7.57;;;;;;;16.69;38.04;97140.78;5051171;27;102115;-57
2022/03/25 10:12:24;;;;;;;11.17;8.30;;;;;;;15.94;38.48;97147.94;5052354;27;102332;-59
2022/03/25 10:14:53;;;;;;;10.60;8.03;;;;;;;16.30;38.03;97144.25;5051315;27;103073;-58
2022/03/25 10:17:21;;;;;;;9.23;7.10;;;;;;;16.68;38.30;97136.47;5052029;27;101933;-58
2022/03/25 10:19:51;;;;;;;9.60;7.60;;;;;;;16.46;37.63;97137.84;5051990;27;102396;-56
2022/03/25 10:22:19;;;;;;;11.93;7.93;;;;;;;16.72;36.91;97142.09;5049819;27;105621;-56
2022/03/25 10:24:48;;;;;;;10.10;8.50;;;;;;;16.52;36.28;97142.13;5052043;27;102031;-57
2022/03/25 10:27:22;;;;;;;11.70;8.20;;;;;;;16.56;36.70;97135.94;5054633;27;102834;-56
2022/03/25 10:29:50;;;;;;;9.40;8.33;;;;;;;16.85;36.12;97133.50;5050304;27;101843;-56
2022/03/25 10:32:20;;;;;;;10.63;9.00;;;;;;;16.61;36.13;97132.44;5051600;27;102431;-57
2022/03/25 10:35:06;;;;;;;10.37;8.50;;;;;;;17.60;35.91;97144.03;5050932;27;102956;-56
2022/03/25 10:37:34;;;;;;;11.87;8.60;;;;;;;17.24;36.31;97135.28;5051856;27;101682;-57
2022/03/25 10:40:01;;;;;;;10.40;8.77;;;;;;;17.91;36.79;97129.31;5051907;27;102896;-57
2022/03/25 10:42:28;;;;;;;11.13;9.20;;;;;;;18.15;35.60;97130.25;5050932;27;101789;-58
2022/03/25 10:44:55;;;;;;;11.97;8.67;;;;;;;17.55;35.48;97120.66;5050419;27;101855;-56
2022/03/25 10:47:26;;;;;;;11.77;8.97;;;;;;;17.52;34.45;97140.03;5051937;27;102862;-56
2022/03/25 10:49:55;;;;;;;13.37;8.83;;;;;;;17.86;34.24;97134.75;5054179;27;102737;-54
2022/03/25 10:52:25;;;;;;;10.33;8.67;;;;;;;18.67;34.66;97133.09;5051820;27;102399;-56
2022/03/25 10:54:52;;;;;;;10.47;9.10;;;;;;;18.78;35.17;97129.22;5050280;27;102526;-56
2022/03/25 10:57:19;;;;;;;9.57;8.67;;;;;;;19.12;35.67;97136.16;5051647;27;101906;-57
2022/03/25 11:00:00;;;;;;;10.83;8.80;;;;;;;19.06;33.65;97128.38;5050118;27;105598;-56
2022/03/25 11:02:27;;;;;;;11.50;9.37;;;;;;;19.18;35.17;97126.13;5049294;27;105810;-57
2022/03/25 11:04:56;;;;;;;12.43;9.50;;;;;;;18.93;34.31;97126.38;5051208;27;102056;-56
2022/03/25 11:07:25;;;;;;;12.70;9.60;;;;;;;17.90;34.97;97125.84;5049616;27;105595;-55
2022/03/25 11:09:53;;;;;;;10.53;9.43;;;;;;;18.01;35.34;97123.88;5050440;27;103705;-56
2022/03/25 11:12:21;;;;;;;12.37;10.03;;;;;;;18.57;34.49;97117.00;5053365;27;102311;-56
2022/03/25 11:14:48;;;;;;;11.33;9.03;;;;;;;19.31;34.58;97120.06;5049673;27;102866;-57
2022/03/25 11:17:17;;;;;;;10.87;9.63;;;;;;;18.75;34.47;97119.03;5049600;27;101729;-56
2022/03/25 11:19:45;;;;;;;10.90;9.80;;;;;;;18.46;37.00;97121.69;5050835;27;102842;-57
2022/03/25 11:22:17;;;;;;;17.57;9.93;;;;;;;18.79;38.27;97118.16;5050310;27;102768;-55
2022/03/25 11:24:49;;;;;;;13.67;10.30;;;;;;;17.81;37.35;97113.25;5051274;27;101675;-56
2022/03/25 11:27:20;;;;;;;11.77;9.87;;;;;;;18.74;36.56;97114.72;5050280;27;102540;-54
2022/03/25 11:29:51;;;;;;;15.20;9.90;;;;;;;19.23;36.52;97115.31;5050575;27;102648;-56